createdAt,value
2023-04-17T00:00:58.116Z,22.83
2023-04-17T00:06:00.208Z,25.00
2023-04-17T00:11:07.834Z,25.23
2023-04-17T00:16:14.063Z,24.60
2023-04-17T00:21:16.021Z,25.03
2023-04-17T00:26:19.585Z,24.70
2023-04-17T00:31:21.599Z,23.97
2023-04-17T00:36:23.479Z,25.00
2023-04-17T00:41:25.374Z,24.27
2023-04-17T00:46:27.432Z,24.37
2023-04-17T00:51:29.723Z,26.43
2023-04-17T00:56:32.060Z,25.40
2023-04-17T01:01:34.281Z,27.13
2023-04-17T01:06:36.898Z,25.13
2023-04-17T01:11:39.542Z,26.13
2023-04-17T01:16:42.159Z,25.77
2023-04-17T01:21:44.426Z,25.57
2023-04-17T01:26:46.605Z,27.93
2023-04-17T01:31:50.075Z,25.70
2023-04-17T01:36:52.186Z,27.03
2023-04-17T01:41:54.402Z,26.90
2023-04-17T01:46:56.681Z,27.47
2023-04-17T01:51:58.588Z,27.13
2023-04-17T01:57:01.288Z,25.30
2023-04-17T02:02:03.405Z,26.83
2023-04-17T02:07:06.890Z,26.03
2023-04-17T02:12:08.885Z,26.63
2023-04-17T02:17:11.203Z,27.30
2023-04-17T02:22:13.168Z,28.17
2023-04-17T02:27:14.994Z,29.47
2023-04-17T02:32:18.991Z,28.23
2023-04-17T02:37:21.275Z,26.83
2023-04-17T02:42:24.512Z,27.97
2023-04-17T02:47:26.453Z,30.43
2023-04-17T02:52:30.147Z,29.80
2023-04-17T02:57:32.808Z,30.77
2023-04-17T03:02:35.011Z,30.53
2023-04-17T03:07:37.118Z,33.00
2023-04-17T03:12:40.368Z,32.93
2023-04-17T03:17:42.402Z,30.53
2023-04-17T03:22:44.311Z,32.17
2023-04-17T03:27:47.168Z,29.80
2023-04-17T03:32:51.509Z,28.97
2023-04-17T03:37:53.520Z,28.00
2023-04-17T03:42:55.914Z,29.30
2023-04-17T03:47:59.450Z,28.10
2023-04-17T03:53:01.824Z,29.73
2023-04-17T03:58:05.770Z,29.30
2023-04-17T04:03:09.460Z,29.70
2023-04-17T04:08:15.771Z,30.93
2023-04-17T04:13:24.560Z,32.00
2023-04-17T04:18:31.372Z,29.33
2023-04-17T04:23:34.517Z,29.70
2023-04-17T04:28:38.046Z,30.47
2023-04-17T04:33:44.902Z,29.23
2023-04-17T04:38:50.358Z,32.67
2023-04-17T04:44:03.702Z,32.57
2023-04-17T04:49:07.224Z,32.13
2023-04-17T04:54:10.739Z,31.73
2023-04-17T04:59:21.212Z,33.20
2023-04-17T05:04:31.539Z,32.00
2023-04-17T05:09:36.655Z,31.40
2023-04-17T05:14:40.546Z,32.07
2023-04-17T05:19:44.030Z,31.70
2023-04-17T05:24:46.155Z,32.03
2023-04-17T05:29:48.276Z,32.27
2023-04-17T05:34:50.645Z,30.67
2023-04-17T05:39:56.371Z,31.57
2023-04-17T05:44:58.709Z,29.37
2023-04-17T05:50:00.997Z,27.43
2023-04-17T05:55:04.803Z,27.93
2023-04-17T06:00:13.061Z,28.40
2023-04-17T06:05:21.725Z,25.87
2023-04-17T06:10:24.023Z,26.13
2023-04-17T06:15:26.844Z,25.87
2023-04-17T06:20:29.088Z,24.40
2023-04-17T06:25:31.392Z,24.37
2023-04-17T06:30:33.424Z,24.43
2023-04-17T06:35:36.610Z,25.17
2023-04-17T06:41:10.943Z,25.43
2023-04-17T06:46:15.274Z,24.73
2023-04-17T06:51:20.690Z,23.80
2023-04-17T06:56:24.483Z,23.70
2023-04-17T07:01:27.892Z,22.77
2023-04-17T07:06:29.942Z,23.03
2023-04-17T07:11:32.134Z,23.80
2023-04-17T07:16:34.097Z,25.83
2023-04-17T07:21:36.596Z,22.40
2023-04-17T07:26:40.539Z,25.60
2023-04-17T07:31:42.496Z,24.90
2023-04-17T07:36:45.129Z,25.13
2023-04-17T07:41:47.023Z,25.33
2023-04-17T07:46:48.870Z,24.83
2023-04-17T07:51:51.228Z,25.07
2023-04-17T07:56:56.922Z,23.80
2023-04-17T08:01:59.003Z,23.63
2023-04-17T08:07:01.377Z,24.00
2023-04-17T08:12:03.857Z,24.10
2023-04-17T08:17:07.600Z,22.23
2023-04-17T08:22:09.876Z,23.13
2023-04-17T08:27:13.588Z,22.83
2023-04-17T08:32:15.885Z,24.87
2023-04-17T08:37:18.021Z,25.67
2023-04-17T08:42:20.081Z,24.47
2023-04-17T08:47:22.553Z,24.47
2023-04-17T08:52:24.428Z,24.50
2023-04-17T08:57:26.383Z,25.37
2023-04-17T09:02:28.588Z,24.50
2023-04-17T09:07:30.809Z,25.10
2023-04-17T09:12:32.743Z,26.63
2023-04-17T09:17:37.865Z,27.43
2023-04-17T09:22:41.070Z,25.73
2023-04-17T09:27:43.053Z,26.63
2023-04-17T09:32:44.975Z,28.47
2023-04-17T09:37:54.512Z,27.70
2023-04-17T09:43:09.452Z,27.53
2023-04-17T09:48:12.885Z,27.33
2023-04-17T09:53:16.984Z,26.20
2023-04-17T09:58:20.074Z,25.93
2023-04-17T10:03:23.794Z,26.67
2023-04-17T10:08:26.017Z,25.23
2023-04-17T10:13:29.753Z,28.27
2023-04-17T10:18:33.200Z,25.30
2023-04-17T10:23:35.449Z,26.70
2023-04-17T10:28:48.987Z,25.03
2023-04-17T10:33:53.020Z,27.40
2023-04-17T10:39:15.461Z,25.40
2023-04-17T10:44:18.393Z,25.67
2023-04-17T10:49:23.461Z,25.80
2023-04-17T10:54:25.317Z,23.63
2023-04-17T10:59:30.083Z,23.33
2023-04-17T11:04:34.282Z,23.60
2023-04-17T11:09:36.386Z,22.83
2023-04-17T11:14:40.831Z,22.33
2023-04-17T11:19:43.675Z,23.50
2023-04-17T11:24:47.132Z,21.88
2023-04-17T11:29:49.193Z,20.50
2023-04-17T11:34:54.689Z,21.30
2023-04-17T11:40:06.049Z,21.08
2023-04-17T11:45:08.930Z,20.88
2023-04-17T11:50:11.286Z,21.50
2023-04-17T11:55:15.826Z,21.33
2023-04-17T12:00:18.500Z,20.42
2023-04-17T12:05:21.000Z,22.08
2023-04-17T12:10:25.580Z,22.52
2023-04-17T12:15:27.966Z,21.05
2023-04-17T12:20:30.169Z,20.83
2023-04-17T12:25:33.652Z,21.15
2023-04-17T12:30:36.442Z,21.80
2023-04-17T12:35:38.719Z,18.23
2023-04-17T12:40:43.460Z,19.40
2023-04-17T12:45:47.456Z,18.38
2023-04-17T12:50:49.550Z,20.40
2023-04-17T12:55:51.610Z,19.40
2023-04-17T13:00:53.518Z,18.65
2023-04-17T13:05:55.710Z,19.63
2023-04-17T13:10:58.367Z,21.05
2023-04-17T13:16:00.927Z,20.63
2023-04-17T13:21:03.032Z,19.95
2023-04-17T13:26:05.845Z,19.63
2023-04-17T13:31:08.751Z,20.08
2023-04-17T13:36:11.310Z,20.55
2023-04-17T13:41:13.552Z,20.38
2023-04-17T13:46:16.673Z,19.15
2023-04-17T13:51:18.911Z,21.05
2023-04-17T13:56:23.458Z,19.60
2023-04-17T14:01:25.580Z,19.67
2023-04-17T14:06:28.893Z,19.75
2023-04-17T14:11:31.176Z,19.48
2023-04-17T14:16:33.816Z,19.55
2023-04-17T14:21:36.409Z,18.23
2023-04-17T14:26:38.631Z,18.77
2023-04-17T14:31:43.875Z,17.40
2023-04-17T14:36:46.232Z,17.88
2023-04-17T14:41:48.415Z,17.85
2023-04-17T14:46:54.835Z,17.27
2023-04-17T14:51:56.883Z,18.38
2023-04-17T14:56:58.981Z,18.48
2023-04-17T15:02:01.076Z,17.52
2023-04-17T15:07:03.301Z,17.30
2023-04-17T15:12:05.661Z,16.77
2023-04-17T15:17:08.972Z,17.80
2023-04-17T15:22:11.033Z,18.83
2023-04-17T15:27:13.030Z,17.42
2023-04-17T15:32:15.109Z,15.40
2023-04-17T15:37:17.179Z,16.38
2023-04-17T15:42:19.346Z,17.88
2023-04-17T15:47:21.406Z,17.63
2023-04-17T15:52:23.335Z,16.98
2023-04-17T15:57:25.331Z,16.65
2023-04-17T16:02:28.921Z,17.20
2023-04-17T16:07:31.934Z,15.38
2023-04-17T16:12:33.851Z,15.30
2023-04-17T16:17:36.092Z,14.95
2023-04-17T16:22:38.148Z,15.70
2023-04-17T16:27:40.533Z,17.10
2023-04-17T16:32:50.141Z,15.95
2023-04-17T16:37:52.315Z,15.48
2023-04-17T16:42:54.438Z,15.02
2023-04-17T16:47:56.337Z,14.75
2023-04-17T16:52:58.346Z,15.77
2023-04-17T16:58:38.294Z,14.20
2023-04-17T17:03:43.089Z,15.00
2023-04-17T17:08:46.815Z,14.25
2023-04-17T17:13:50.529Z,14.05
2023-04-17T17:18:52.972Z,15.02
2023-04-17T17:23:54.815Z,15.25
2023-04-17T17:28:56.807Z,15.35
2023-04-17T17:34:17.010Z,15.02
2023-04-17T17:39:24.228Z,15.20
2023-04-17T17:44:26.263Z,14.03
2023-04-17T17:49:28.294Z,14.87
2023-04-17T17:54:30.398Z,14.23
2023-04-17T17:59:33.216Z,14.10
2023-04-17T18:04:35.200Z,14.27
2023-04-17T18:09:37.039Z,14.67
2023-04-17T18:14:38.816Z,14.27
2023-04-17T18:19:42.093Z,14.10
2023-04-17T18:24:43.950Z,14.50
2023-04-17T18:29:45.912Z,15.37
2023-04-17T18:34:51.657Z,14.67
2023-04-17T18:40:01.730Z,13.87
2023-04-17T18:51:17.442Z,15.80
2023-04-17T18:57:05.455Z,14.10
2023-04-17T19:02:07.741Z,14.80
2023-04-17T19:07:10.271Z,15.53
2023-04-17T19:12:12.124Z,16.27
2023-04-17T19:17:15.924Z,16.03
2023-04-17T19:22:18.556Z,17.03
2023-04-17T19:27:20.746Z,15.87
2023-04-17T19:32:22.641Z,13.27
2023-04-17T19:37:24.637Z,14.37
2023-04-17T19:42:27.146Z,14.80
2023-04-17T19:47:29.261Z,17.07
2023-04-17T19:52:31.245Z,15.37
2023-04-17T19:57:33.715Z,13.57
2023-04-17T20:02:35.762Z,13.53
2023-04-17T20:07:37.932Z,12.83
2023-04-17T20:12:40.099Z,14.07
2023-04-17T20:17:42.299Z,14.17
2023-04-17T20:22:44.187Z,12.33
2023-04-17T20:27:46.575Z,12.17
2023-04-17T20:39:26.549Z,15.23
2023-04-17T20:44:28.482Z,15.90
2023-04-17T20:49:32.128Z,16.93
2023-04-17T20:54:35.841Z,15.83
2023-04-17T20:59:37.885Z,17.10
2023-04-17T21:04:39.926Z,18.40
2023-04-17T21:09:41.919Z,21.17
2023-04-17T21:14:43.696Z,19.20
2023-04-17T21:19:46.288Z,19.60
2023-04-17T21:24:48.274Z,18.93
2023-04-17T21:29:50.279Z,20.60
2023-04-17T21:34:52.088Z,20.03
2023-04-17T21:39:54.629Z,22.27
2023-04-17T21:44:56.480Z,20.07
2023-04-17T21:50:00.199Z,20.30
2023-04-17T21:55:07.586Z,23.27
2023-04-17T22:00:12.510Z,21.93
2023-04-17T22:05:14.453Z,23.57
2023-04-17T22:10:16.269Z,22.87
2023-04-17T22:15:18.393Z,23.63
2023-04-17T22:20:20.687Z,23.47
2023-04-17T22:25:22.694Z,25.23
2023-04-17T22:30:24.581Z,25.17
2023-04-17T22:35:26.892Z,24.13
2023-04-17T22:40:30.114Z,24.40
2023-04-17T22:45:32.685Z,24.47
2023-04-17T22:50:34.836Z,24.93
2023-04-17T22:55:37.154Z,23.13
2023-04-17T23:00:39.019Z,24.37
2023-04-17T23:05:41.002Z,24.70
2023-04-17T23:10:42.833Z,24.60
2023-04-17T23:15:44.668Z,25.27
2023-04-17T23:20:47.023Z,24.20
2023-04-17T23:25:49.153Z,24.37
2023-04-17T23:30:50.994Z,23.93
2023-04-17T23:35:52.955Z,25.73
2023-04-17T23:40:55.045Z,24.70
2023-04-17T23:45:57.755Z,26.30
2023-04-17T23:51:00.171Z,25.03
2023-04-17T23:56:02.470Z,26.63
